createdAt,value
2018-09-29T00:00:17.569Z,6.97
2018-09-29T00:01:17.564Z,6.97
2018-09-29T00:02:17.557Z,6.96
2018-09-29T00:03:17.577Z,6.95
2018-09-29T00:04:17.545Z,6.93
2018-09-29T00:05:17.560Z,6.95
2018-09-29T00:06:17.531Z,6.87
2018-09-29T00:07:17.524Z,6.87
2018-09-29T00:08:17.518Z,6.81
2018-09-29T00:09:17.511Z,6.81
2018-09-29T00:10:17.565Z,6.87
2018-09-29T00:11:17.498Z,6.79
2018-09-29T00:12:17.492Z,6.74
2018-09-29T00:13:17.486Z,6.77
2018-09-29T00:14:17.478Z,6.74
2018-09-29T00:15:17.472Z,6.75
2018-09-29T00:16:17.466Z,6.78
2018-09-29T00:17:17.460Z,6.79
2018-09-29T00:18:17.452Z,6.67
2018-09-29T00:19:17.446Z,6.77
2018-09-29T00:20:17.440Z,6.70
2018-09-29T00:21:17.435Z,6.75
2018-09-29T00:22:17.427Z,6.79
2018-09-29T00:23:17.420Z,6.77
2018-09-29T00:24:17.415Z,6.69
2018-09-29T00:25:17.408Z,6.79
2018-09-29T00:26:17.400Z,6.66
2018-09-29T00:27:17.396Z,6.69
2018-09-29T00:28:17.389Z,6.63
2018-09-29T00:29:17.381Z,6.59
2018-09-29T00:30:17.376Z,6.64
2018-09-29T00:31:17.368Z,6.70
2018-09-29T00:32:17.362Z,6.64
2018-09-29T00:33:17.357Z,6.62
2018-09-29T00:34:17.348Z,6.66
2018-09-29T00:35:17.345Z,6.70
2018-09-29T00:36:17.335Z,6.64
2018-09-29T00:37:17.329Z,6.63
2018-09-29T00:38:17.323Z,6.67
2018-09-29T00:39:17.316Z,6.60
2018-09-29T00:40:17.310Z,6.59
2018-09-29T00:41:17.304Z,6.56
2018-09-29T00:42:17.295Z,6.64
2018-09-29T00:43:17.289Z,6.54
2018-09-29T00:44:17.287Z,6.62
2018-09-29T00:45:17.277Z,6.54
2018-09-29T00:46:17.270Z,6.51
2018-09-29T00:47:17.264Z,6.59
2018-09-29T00:48:17.258Z,6.57
2018-09-29T00:49:17.249Z,6.56
2018-09-29T00:50:17.244Z,6.60
2018-09-29T00:51:17.237Z,6.62
2018-09-29T00:52:17.230Z,6.63
2018-09-29T00:53:17.223Z,6.56
2018-09-29T00:54:17.216Z,6.52
2018-09-29T00:55:17.211Z,6.49
2018-09-29T00:56:17.204Z,6.48
2018-09-29T00:57:17.197Z,6.52
2018-09-29T00:58:17.190Z,6.54
2018-09-29T00:59:17.182Z,6.49
2018-09-29T01:00:17.177Z,6.54
2018-09-29T01:01:17.170Z,6.57
2018-09-29T01:02:17.165Z,6.56
2018-09-29T01:03:17.161Z,6.59
2018-09-29T01:04:17.159Z,6.56
2018-09-29T01:05:17.143Z,6.56
2018-09-29T01:06:17.137Z,6.59
2018-09-29T01:07:17.130Z,6.60
2018-09-29T01:08:17.124Z,6.56
2018-09-29T01:09:17.123Z,6.59
2018-09-29T01:10:17.109Z,6.54
2018-09-29T01:11:17.102Z,6.60
2018-09-29T01:12:17.096Z,6.57
2018-09-29T01:13:17.089Z,6.56
2018-09-29T01:14:17.084Z,6.56
2018-09-29T01:15:17.075Z,6.60
2018-09-29T01:16:17.070Z,6.60
2018-09-29T01:17:17.062Z,6.60
2018-09-29T01:18:17.055Z,6.52
2018-09-29T01:19:17.049Z,6.60
2018-09-29T01:20:17.041Z,6.57
2018-09-29T01:21:17.035Z,6.60
2018-09-29T01:22:17.028Z,6.62
2018-09-29T01:23:17.021Z,6.59
2018-09-29T01:24:17.014Z,6.49
2018-09-29T01:25:17.010Z,6.62
2018-09-29T01:26:17.001Z,6.59
2018-09-29T01:27:16.994Z,6.56
2018-09-29T01:28:16.988Z,6.56
2018-09-29T01:29:16.983Z,6.56
2018-09-29T01:30:16.974Z,6.62
2018-09-29T01:31:16.969Z,6.62
2018-09-29T01:32:16.960Z,6.60
2018-09-29T01:33:16.955Z,6.54
2018-09-29T01:34:16.947Z,6.57
2018-09-29T01:35:16.941Z,6.59
2018-09-29T01:36:16.936Z,6.63
2018-09-29T01:37:16.928Z,6.64
2018-09-29T01:38:16.920Z,6.59
2018-09-29T01:39:16.913Z,6.66
2018-09-29T01:40:16.907Z,6.69
2018-09-29T01:41:16.901Z,6.74
2018-09-29T01:42:16.898Z,6.66
2018-09-29T01:43:16.886Z,6.77
2018-09-29T01:44:16.879Z,6.69
2018-09-29T01:45:16.872Z,6.72
2018-09-29T01:46:16.866Z,6.67
2018-09-29T01:47:16.862Z,6.67
2018-09-29T01:48:16.853Z,6.74
2018-09-29T01:49:16.846Z,6.79
2018-09-29T01:50:16.838Z,6.75
2018-09-29T01:51:16.832Z,6.78
2018-09-29T01:52:16.824Z,6.78
2018-09-29T01:53:16.820Z,6.77
2018-09-29T01:54:16.810Z,6.78
2018-09-29T01:55:16.805Z,6.75
2018-09-29T01:56:16.797Z,6.66
2018-09-29T01:57:16.792Z,6.69
2018-09-29T01:58:16.785Z,6.70
2018-09-29T01:59:16.776Z,6.72
2018-09-29T02:00:16.773Z,6.67
2018-09-29T02:01:16.764Z,6.69
2018-09-29T02:02:16.757Z,6.63
2018-09-29T02:03:16.751Z,6.72
2018-09-29T02:04:16.744Z,6.56
2018-09-29T02:05:16.740Z,6.63
2018-09-29T02:06:16.729Z,6.67
2018-09-29T02:07:16.723Z,6.67
2018-09-29T02:08:16.716Z,6.67
2018-09-29T02:09:16.710Z,6.62
2018-09-29T02:10:16.701Z,6.60
2018-09-29T02:11:16.697Z,6.60
2018-09-29T02:12:16.691Z,6.54
2018-09-29T02:13:16.683Z,6.51
2018-09-29T02:14:16.674Z,6.38
2018-09-29T02:15:16.674Z,6.35
2018-09-29T02:16:16.661Z,6.39
2018-09-29T02:17:16.654Z,6.39
2018-09-29T02:18:16.648Z,6.41
2018-09-29T02:19:16.641Z,6.33
2018-09-29T02:20:16.634Z,6.45
2018-09-29T02:21:16.628Z,6.48
2018-09-29T02:22:16.619Z,6.45
2018-09-29T02:23:16.615Z,6.49
2018-09-29T02:24:16.608Z,6.49
2018-09-29T02:25:16.600Z,6.45
2018-09-29T02:26:16.595Z,6.46
2018-09-29T02:27:16.586Z,6.35
2018-09-29T02:28:16.580Z,6.51
2018-09-29T02:29:16.573Z,6.49
2018-09-29T02:30:16.566Z,6.45
2018-09-29T02:31:16.564Z,6.48
2018-09-29T02:32:16.553Z,6.42
2018-09-29T02:33:16.546Z,6.48
2018-09-29T02:34:16.538Z,6.44
2018-09-29T02:35:16.532Z,6.49
2018-09-29T02:36:16.526Z,6.54
2018-09-29T02:37:16.519Z,6.45
2018-09-29T02:38:16.512Z,6.49
2018-09-29T02:39:16.506Z,6.35
2018-09-29T02:40:16.498Z,6.42
2018-09-29T02:41:16.493Z,6.41
2018-09-29T02:42:16.485Z,6.36
2018-09-29T02:43:16.478Z,6.39
2018-09-29T02:44:16.471Z,6.26
2018-09-29T02:45:16.464Z,6.35
2018-09-29T02:46:16.457Z,6.35
2018-09-29T02:47:16.451Z,6.26
2018-09-29T02:48:16.443Z,6.31
2018-09-29T02:49:16.437Z,6.30
2018-09-29T02:50:16.429Z,6.26
2018-09-29T02:51:16.425Z,6.20
2018-09-29T02:52:16.416Z,6.14
2018-09-29T02:53:16.414Z,6.16
2018-09-29T02:54:16.402Z,6.16
2018-09-29T02:55:16.395Z,6.16
2018-09-29T02:56:16.388Z,6.22
2018-09-29T02:57:16.382Z,6.20
2018-09-29T02:58:16.374Z,6.16
2018-09-29T02:59:16.367Z,6.14
2018-09-29T03:00:16.364Z,6.07
2018-09-29T03:01:16.354Z,6.08
2018-09-29T03:02:16.346Z,6.07
2018-09-29T03:03:16.340Z,6.01
2018-09-29T03:04:16.333Z,6.09
2018-09-29T03:05:16.330Z,6.01
2018-09-29T03:06:16.322Z,5.97
2018-09-29T03:07:16.366Z,6.04
2018-09-29T03:08:16.304Z,5.98
2018-09-29T03:09:16.300Z,6.02
2018-09-29T03:10:16.291Z,6.01
2018-09-29T03:11:16.285Z,6.12
2018-09-29T03:12:16.280Z,6.07
2018-09-29T03:13:16.271Z,5.99
2018-09-29T03:14:16.265Z,6.01
2018-09-29T03:15:16.257Z,5.97
2018-09-29T03:16:16.251Z,6.01
2018-09-29T03:17:16.243Z,5.93
2018-09-29T03:18:16.236Z,5.97
2018-09-29T03:19:16.322Z,5.93
2018-09-29T03:20:16.221Z,6.04
2018-09-29T03:21:16.215Z,6.04
2018-09-29T03:22:16.207Z,6.07
2018-09-29T03:23:16.233Z,6.12
2018-09-29T03:24:16.200Z,6.09
2018-09-29T03:25:16.187Z,6.02
2018-09-29T03:26:16.180Z,6.05
2018-09-29T03:27:16.173Z,5.99
2018-09-29T03:28:16.171Z,5.84
2018-09-29T03:29:16.160Z,5.87
2018-09-29T03:30:16.151Z,5.84
2018-09-29T03:31:16.145Z,5.87
2018-09-29T03:32:16.141Z,5.86
2018-09-29T03:33:16.131Z,5.80
2018-09-29T03:34:16.124Z,5.73
2018-09-29T03:35:16.118Z,5.68
2018-09-29T03:36:16.109Z,5.75
2018-09-29T03:37:16.111Z,5.71
2018-09-29T03:38:16.095Z,5.75
2018-09-29T03:39:16.091Z,5.71
2018-09-29T03:40:16.082Z,5.82
2018-09-29T03:41:16.074Z,5.76
2018-09-29T03:42:16.066Z,5.80
2018-09-29T03:43:16.060Z,5.86
2018-09-29T03:44:16.057Z,5.82
2018-09-29T03:45:16.046Z,5.84
2018-09-29T03:46:16.039Z,5.84
2018-09-29T03:47:16.033Z,5.82
2018-09-29T03:48:16.025Z,5.75
2018-09-29T03:49:16.018Z,5.72
2018-09-29T03:50:16.009Z,5.75
2018-09-29T03:51:16.003Z,5.75
2018-09-29T03:52:15.999Z,5.79
2018-09-29T03:53:15.993Z,5.65
2018-09-29T03:54:15.982Z,5.53
2018-09-29T03:55:15.975Z,5.62
2018-09-29T03:56:15.968Z,5.61
2018-09-29T03:57:15.969Z,5.57
2018-09-29T03:58:15.954Z,5.59
2018-09-29T03:59:15.948Z,5.43
2018-09-29T04:00:15.940Z,5.51
2018-09-29T04:01:15.935Z,5.53
2018-09-29T04:02:15.928Z,5.54
2018-09-29T04:03:15.922Z,5.56
2018-09-29T04:04:15.914Z,5.61
2018-09-29T04:05:15.906Z,5.53
2018-09-29T04:06:15.898Z,5.56
2018-09-29T04:07:15.890Z,5.46
2018-09-29T04:08:15.883Z,5.53
2018-09-29T04:09:15.877Z,5.50
2018-09-29T04:10:15.870Z,5.38
2018-09-29T04:11:15.865Z,5.39
2018-09-29T04:12:15.855Z,5.36
2018-09-29T04:13:15.848Z,5.41
2018-09-29T04:14:15.841Z,5.47
2018-09-29T04:15:15.834Z,5.39
2018-09-29T04:16:15.826Z,5.35
2018-09-29T04:17:15.819Z,5.32
2018-09-29T04:18:15.812Z,5.36
2018-09-29T04:19:15.806Z,5.32
2018-09-29T04:20:15.798Z,5.35
2018-09-29T04:21:15.791Z,5.35
2018-09-29T04:22:15.782Z,5.38
2018-09-29T04:23:15.777Z,5.35
2018-09-29T04:24:15.768Z,5.39
2018-09-29T04:25:15.763Z,5.30
2018-09-29T04:26:15.754Z,5.32
2018-09-29T04:27:15.746Z,5.36
2018-09-29T04:28:15.740Z,5.36
2018-09-29T04:29:15.733Z,5.33
2018-09-29T04:30:15.725Z,5.28
2018-09-29T04:31:15.719Z,5.20
2018-09-29T04:32:15.710Z,5.14
2018-09-29T04:33:15.704Z,5.15
2018-09-29T04:34:15.695Z,5.18
2018-09-29T04:35:15.690Z,5.14
2018-09-29T04:36:15.683Z,5.12
2018-09-29T04:37:15.675Z,5.08
2018-09-29T04:38:15.666Z,5.11
2018-09-29T04:39:15.661Z,5.08
2018-09-29T04:40:15.654Z,4.97
2018-09-29T04:41:15.645Z,4.96
2018-09-29T04:42:15.638Z,4.94
2018-09-29T04:43:15.690Z,4.97
2018-09-29T04:44:15.625Z,4.90
2018-09-29T04:45:15.618Z,4.90
2018-09-29T04:46:15.609Z,4.94
2018-09-29T04:47:15.601Z,4.93
2018-09-29T04:48:15.595Z,4.97
2018-09-29T04:49:15.665Z,5.15
2018-09-29T04:50:15.581Z,5.18
2018-09-29T04:51:15.574Z,5.15
2018-09-29T04:52:15.566Z,5.10
2018-09-29T04:53:15.660Z,5.11
2018-09-29T04:54:15.550Z,5.15
2018-09-29T04:55:15.543Z,5.15
2018-09-29T04:56:15.536Z,5.11
2018-09-29T04:57:15.530Z,5.17
2018-09-29T04:58:15.521Z,5.18
2018-09-29T04:59:15.514Z,5.15
2018-09-29T05:00:15.508Z,5.29
2018-09-29T05:01:15.502Z,5.25
2018-09-29T05:02:15.493Z,5.26
2018-09-29T05:03:15.485Z,5.17
2018-09-29T05:04:15.478Z,5.14
2018-09-29T05:05:15.470Z,5.05
2018-09-29T05:06:15.463Z,5.04
2018-09-29T05:07:15.458Z,4.97
2018-09-29T05:08:15.450Z,4.96
2018-09-29T05:09:15.441Z,4.96
2018-09-29T05:10:15.435Z,4.92
2018-09-29T05:11:15.427Z,4.89
2018-09-29T05:12:15.421Z,4.94
2018-09-29T05:13:15.413Z,4.93
2018-09-29T05:14:15.405Z,4.97
2018-09-29T05:15:15.397Z,4.96
2018-09-29T05:16:15.391Z,4.96
2018-09-29T05:17:15.384Z,4.99
2018-09-29T05:18:15.379Z,5.04
2018-09-29T05:19:15.367Z,5.02
2018-09-29T05:20:15.360Z,5.00
2018-09-29T05:21:15.354Z,4.99
2018-09-29T05:22:15.346Z,5.00
2018-09-29T05:23:15.365Z,4.97
2018-09-29T05:24:15.333Z,4.96
2018-09-29T05:25:15.323Z,5.00
2018-09-29T05:26:15.316Z,5.00
2018-09-29T05:27:15.311Z,4.97
2018-09-29T05:28:15.304Z,4.96
2018-09-29T05:29:15.294Z,5.02
2018-09-29T05:30:15.286Z,5.07
2018-09-29T05:31:15.281Z,5.05
2018-09-29T05:32:15.272Z,5.05
2018-09-29T05:33:15.265Z,5.00
2018-09-29T05:34:15.256Z,5.07
2018-09-29T05:35:15.251Z,5.08
2018-09-29T05:36:15.248Z,5.12
2018-09-29T05:37:15.237Z,5.10
2018-09-29T05:38:15.241Z,5.11
2018-09-29T05:39:15.221Z,5.14
2018-09-29T05:40:15.215Z,5.05
2018-09-29T05:41:15.207Z,5.15
2018-09-29T05:42:15.199Z,5.18
2018-09-29T05:43:15.192Z,5.21
2018-09-29T05:44:15.184Z,5.28
2018-09-29T05:45:15.177Z,5.30
2018-09-29T05:46:15.170Z,5.32
2018-09-29T05:47:15.163Z,5.32
2018-09-29T05:48:15.203Z,5.36
2018-09-29T05:49:15.148Z,5.36
2018-09-29T05:50:15.140Z,5.36
2018-09-29T05:51:15.132Z,5.46
2018-09-29T05:52:15.125Z,5.41
2018-09-29T05:53:15.118Z,5.44
2018-09-29T05:54:15.110Z,5.50
2018-09-29T05:55:15.103Z,5.48
2018-09-29T05:56:15.100Z,5.51
2018-09-29T05:57:15.089Z,5.51
2018-09-29T05:58:15.081Z,5.56
2018-09-29T05:59:15.073Z,5.64
2018-09-29T06:00:15.127Z,5.69
2018-09-29T06:01:15.059Z,5.72
2018-09-29T06:02:15.051Z,5.83
2018-09-29T06:03:15.044Z,5.84
2018-09-29T06:04:15.037Z,5.87
2018-09-29T06:05:15.045Z,5.91
2018-09-29T06:06:15.023Z,5.98
2018-09-29T06:07:15.067Z,5.93
2018-09-29T06:08:15.009Z,5.94
2018-09-29T06:09:15.001Z,5.98
2018-09-29T06:10:14.992Z,5.99
2018-09-29T06:11:14.986Z,6.02
2018-09-29T06:12:14.978Z,6.17
2018-09-29T06:13:15.012Z,6.12
2018-09-29T06:14:14.963Z,6.16
2018-09-29T06:15:14.956Z,6.20
2018-09-29T06:16:14.949Z,6.33
2018-09-29T06:17:14.943Z,6.28
2018-09-29T06:18:14.933Z,6.28
2018-09-29T06:19:14.930Z,6.28
2018-09-29T06:20:14.920Z,6.30
2018-09-29T06:21:14.914Z,6.35
2018-09-29T06:22:14.905Z,6.44
2018-09-29T06:23:14.902Z,6.44
2018-09-29T06:24:14.891Z,6.49
2018-09-29T06:25:14.886Z,6.45
2018-09-29T06:26:14.876Z,6.46
2018-09-29T06:27:14.870Z,6.49
2018-09-29T06:28:14.862Z,6.67
2018-09-29T06:29:14.855Z,6.77
2018-09-29T06:30:14.848Z,6.72
2018-09-29T06:31:14.841Z,6.84
2018-09-29T06:32:14.835Z,6.93
2018-09-29T06:33:14.828Z,6.93
2018-09-29T06:34:14.882Z,7.06
2018-09-29T06:35:14.814Z,7.07
2018-09-29T06:36:14.808Z,7.13
2018-09-29T06:37:14.802Z,7.17
2018-09-29T06:38:14.811Z,7.17
2018-09-29T06:39:14.786Z,7.24
2018-09-29T06:40:14.780Z,7.24
2018-09-29T06:41:14.773Z,7.31
2018-09-29T06:42:14.766Z,7.42
2018-09-29T06:43:14.759Z,7.39
2018-09-29T06:44:14.751Z,7.36
2018-09-29T06:45:14.747Z,7.43
2018-09-29T06:46:14.739Z,7.50
2018-09-29T06:47:14.732Z,7.50
2018-09-29T06:48:14.787Z,7.54
2018-09-29T06:49:14.719Z,7.56
2018-09-29T06:50:14.712Z,7.56
2018-09-29T06:51:14.705Z,7.58
2018-09-29T06:52:14.699Z,7.66
2018-09-29T06:53:14.693Z,7.58
2018-09-29T06:54:14.685Z,7.57
2018-09-29T06:55:14.681Z,7.67
2018-09-29T06:56:14.672Z,7.72
2018-09-29T06:57:14.665Z,7.70
2018-09-29T06:58:14.660Z,7.73
2018-09-29T06:59:14.653Z,7.72
2018-09-29T07:00:14.647Z,7.70
2018-09-29T07:01:14.642Z,7.70
2018-09-29T07:02:14.632Z,7.69
2018-09-29T07:03:14.626Z,7.82
2018-09-29T07:04:14.620Z,7.88
2018-09-29T07:05:14.612Z,7.85
2018-09-29T07:06:14.607Z,7.95
2018-09-29T07:07:14.600Z,7.94
2018-09-29T07:08:14.592Z,8.00
2018-09-29T07:09:14.587Z,8.06
2018-09-29T07:10:14.579Z,8.05
2018-09-29T07:11:14.574Z,8.12
2018-09-29T07:12:14.567Z,8.19
2018-09-29T07:13:14.560Z,8.19
2018-09-29T07:14:14.552Z,8.13
2018-09-29T07:15:14.548Z,8.10
2018-09-29T07:16:14.541Z,8.16
2018-09-29T07:17:14.537Z,8.12
2018-09-29T07:18:14.529Z,8.16
2018-09-29T07:19:14.522Z,8.19
2018-09-29T07:20:14.517Z,8.19
2018-09-29T07:21:14.519Z,8.23
2018-09-29T07:22:14.504Z,8.24
2018-09-29T07:23:14.497Z,8.41
2018-09-29T07:24:14.493Z,8.31
2018-09-29T07:25:14.531Z,8.31
2018-09-29T07:26:14.480Z,8.38
2018-09-29T07:27:14.474Z,8.53
2018-09-29T07:28:14.468Z,8.48
2018-09-29T07:29:14.463Z,8.55
2018-09-29T07:30:14.456Z,8.51
2018-09-29T07:31:14.505Z,8.64
2018-09-29T07:32:14.444Z,8.61
2018-09-29T07:33:14.437Z,8.71
2018-09-29T07:34:14.430Z,8.69
2018-09-29T07:35:14.425Z,8.82
2018-09-29T07:36:14.422Z,8.81
2018-09-29T07:37:14.413Z,8.99
2018-09-29T07:38:14.411Z,8.92
2018-09-29T07:39:14.403Z,8.99
2018-09-29T07:40:14.397Z,9.10
2018-09-29T07:41:14.390Z,9.29
2018-09-29T07:42:14.385Z,9.41
2018-09-29T07:43:14.382Z,9.36
2018-09-29T07:44:14.374Z,9.39
2018-09-29T07:45:14.367Z,9.40
2018-09-29T07:46:14.361Z,9.43
2018-09-29T07:47:14.355Z,9.50
2018-09-29T07:48:14.351Z,9.64
2018-09-29T07:49:14.428Z,9.64
2018-09-29T07:50:14.339Z,9.66
2018-09-29T07:51:14.333Z,9.62
2018-09-29T07:52:14.328Z,9.69
2018-09-29T07:53:14.322Z,9.68
2018-09-29T07:54:14.319Z,9.72
2018-09-29T07:55:14.312Z,9.69
2018-09-29T07:56:14.317Z,9.83
2018-09-29T07:57:14.301Z,9.91
2018-09-29T07:58:14.294Z,9.83
2018-09-29T07:59:14.288Z,9.98
2018-09-29T08:00:14.284Z,9.97
2018-09-29T08:01:14.278Z,10.12
2018-09-29T08:02:14.272Z,10.17
2018-09-29T08:03:14.267Z,10.10
2018-09-29T08:04:14.260Z,10.13
2018-09-29T08:05:14.257Z,10.25
2018-09-29T08:06:14.288Z,10.26
2018-09-29T08:07:14.244Z,10.41
2018-09-29T08:08:14.239Z,10.35
2018-09-29T08:09:14.233Z,10.46
2018-09-29T08:10:14.227Z,10.67
2018-09-29T08:11:14.222Z,10.63
2018-09-29T08:12:14.286Z,10.79
2018-09-29T08:13:14.213Z,10.71
2018-09-29T08:14:14.207Z,10.61
2018-09-29T08:15:14.202Z,10.78
2018-09-29T08:16:14.197Z,10.76
2018-09-29T08:17:14.191Z,10.86
2018-09-29T08:18:14.192Z,10.90
2018-09-29T08:19:14.180Z,11.05
2018-09-29T08:20:14.176Z,11.07
2018-09-29T08:21:14.172Z,11.00
2018-09-29T08:22:14.164Z,11.12
2018-09-29T08:23:14.164Z,11.18
2018-09-29T08:24:14.173Z,11.29
2018-09-29T08:25:14.150Z,11.37
2018-09-29T08:26:14.146Z,11.37
2018-09-29T08:27:14.144Z,11.45
2018-09-29T08:28:14.136Z,11.50
2018-09-29T08:29:14.131Z,11.48
2018-09-29T08:30:14.125Z,11.51
2018-09-29T08:31:14.120Z,11.63
2018-09-29T08:32:14.157Z,11.69
2018-09-29T08:33:14.113Z,11.77
2018-09-29T08:34:14.107Z,11.81
2018-09-29T08:35:14.104Z,11.81
2018-09-29T08:36:14.101Z,11.81
2018-09-29T08:37:14.093Z,11.81
2018-09-29T08:38:14.090Z,11.97
2018-09-29T08:39:14.087Z,11.86
2018-09-29T08:40:14.080Z,11.86
2018-09-29T08:41:14.078Z,12.02
2018-09-29T08:42:14.071Z,11.88
2018-09-29T08:43:14.067Z,12.00
2018-09-29T08:44:14.079Z,12.06
2018-09-29T08:45:14.060Z,12.13
2018-09-29T08:46:14.059Z,12.20
2018-09-29T08:47:14.052Z,12.27
2018-09-29T08:48:14.046Z,12.25
2018-09-29T08:49:14.044Z,12.28
2018-09-29T08:50:14.038Z,12.36
2018-09-29T08:51:14.034Z,12.28
2018-09-29T08:52:14.029Z,12.29
2018-09-29T08:53:14.043Z,12.36
2018-09-29T08:54:14.023Z,12.42
2018-09-29T08:55:14.018Z,12.55
2018-09-29T08:56:16.968Z,12.40
2018-09-29T08:57:14.010Z,12.46
2018-09-29T08:58:14.004Z,12.53
2018-09-29T08:59:14.003Z,12.60
2018-09-29T09:00:14.000Z,12.76
2018-09-29T09:01:13.997Z,12.83
2018-09-29T09:02:13.992Z,13.18
2018-09-29T09:03:13.992Z,13.60
2018-09-29T09:04:13.985Z,14.20
2018-09-29T09:05:13.983Z,15.03
2018-09-29T09:06:13.980Z,15.47
2018-09-29T09:07:14.030Z,15.61
2018-09-29T09:08:13.976Z,15.59
2018-09-29T09:09:13.976Z,15.65
2018-09-29T09:10:13.973Z,16.05
2018-09-29T09:11:13.974Z,16.12
2018-09-29T09:12:13.979Z,16.41
2018-09-29T09:13:13.974Z,16.78
2018-09-29T09:14:13.974Z,17.22
2018-09-29T09:15:13.976Z,17.04
2018-09-29T09:16:13.978Z,17.23
2018-09-29T09:17:13.980Z,17.41
2018-09-29T09:18:13.983Z,17.60
2018-09-29T09:19:13.985Z,18.23
2018-09-29T09:20:13.986Z,18.33
2018-09-29T09:21:13.989Z,17.48
2018-09-29T09:22:13.993Z,16.86
2018-09-29T09:23:14.033Z,17.30
2018-09-29T09:24:14.040Z,17.64
2018-09-29T09:25:14.005Z,17.79
2018-09-29T09:26:14.008Z,17.83
2018-09-29T09:27:14.013Z,17.97
2018-09-29T09:28:14.019Z,18.65
2018-09-29T09:29:14.030Z,19.18
2018-09-29T09:30:14.077Z,19.26
2018-09-29T09:31:14.035Z,19.39
2018-09-29T09:32:14.041Z,19.26
2018-09-29T09:33:14.048Z,19.00
2018-09-29T09:34:14.054Z,18.73
2018-09-29T09:35:14.059Z,18.81
2018-09-29T09:36:14.069Z,18.73
2018-09-29T09:37:14.073Z,18.05
2018-09-29T09:38:14.080Z,18.33
2018-09-29T09:39:14.086Z,18.88
2018-09-29T09:40:14.095Z,19.26
2018-09-29T09:41:14.103Z,18.26
2018-09-29T09:42:14.110Z,18.15
2018-09-29T09:43:14.118Z,18.37
2018-09-29T09:44:14.125Z,18.41
2018-09-29T09:45:14.133Z,18.18
2018-09-29T09:46:14.143Z,18.93
2018-09-29T09:47:14.151Z,19.02
2018-09-29T09:48:14.158Z,18.73
2018-09-29T09:49:14.168Z,18.70
2018-09-29T09:50:14.180Z,18.71
2018-09-29T09:51:14.183Z,18.75
2018-09-29T09:52:14.195Z,18.18
2018-09-29T09:53:14.202Z,18.47
2018-09-29T09:54:14.208Z,18.95
2018-09-29T09:55:14.218Z,19.54
2018-09-29T09:56:14.227Z,19.33
2018-09-29T09:57:14.239Z,19.27
2018-09-29T09:58:14.245Z,18.93
2018-09-29T09:59:14.255Z,18.73
2018-09-29T10:00:14.263Z,18.99
2018-09-29T10:01:14.273Z,18.95
2018-09-29T10:02:14.281Z,18.68
2018-09-29T10:03:14.292Z,18.93
2018-09-29T10:04:14.304Z,19.49
2018-09-29T10:05:14.314Z,19.45
2018-09-29T10:06:14.318Z,19.74
2018-09-29T10:07:14.329Z,19.95
2018-09-29T10:08:14.339Z,20.10
2018-09-29T10:09:14.352Z,20.40
2018-09-29T10:10:14.357Z,19.29
2018-09-29T10:11:14.367Z,19.15
2018-09-29T10:12:14.380Z,18.75
2018-09-29T10:13:14.385Z,18.59
2018-09-29T10:14:14.393Z,18.16
2018-09-29T10:15:14.403Z,18.18
2018-09-29T10:16:14.413Z,18.45
2018-09-29T10:17:14.427Z,18.71
2018-09-29T10:18:14.432Z,18.26
2018-09-29T10:19:14.442Z,18.38
2018-09-29T10:20:14.454Z,18.53
2018-09-29T10:21:14.460Z,18.22
2018-09-29T10:22:14.471Z,17.63
2018-09-29T10:23:14.478Z,18.07
2018-09-29T10:24:14.486Z,18.29
2018-09-29T10:25:14.496Z,18.28
2018-09-29T10:26:14.504Z,18.58
2018-09-29T10:27:14.512Z,19.49
2018-09-29T10:28:14.521Z,20.19
2018-09-29T10:29:14.533Z,20.43
2018-09-29T10:30:14.542Z,19.91
2018-09-29T10:31:14.548Z,19.55
2018-09-29T10:32:14.557Z,18.99
2018-09-29T10:33:14.566Z,17.39
2018-09-29T10:34:14.574Z,16.72
2018-09-29T10:35:14.582Z,16.61
2018-09-29T10:36:14.612Z,16.43
2018-09-29T10:37:14.598Z,16.08
2018-09-29T10:38:14.607Z,15.54
2018-09-29T10:39:14.615Z,15.49
2018-09-29T10:40:14.620Z,15.47
2018-09-29T10:41:14.627Z,15.49
2018-09-29T10:42:14.633Z,15.49
2018-09-29T10:43:14.639Z,15.76
2018-09-29T10:44:14.750Z,15.65
2018-09-29T10:45:14.650Z,15.49
2018-09-29T10:46:14.655Z,15.39
2018-09-29T10:47:14.660Z,15.28
2018-09-29T10:48:14.666Z,15.35
2018-09-29T10:49:14.671Z,15.19
2018-09-29T10:50:14.676Z,15.31
2018-09-29T10:51:14.681Z,15.57
2018-09-29T10:52:14.684Z,15.86
2018-09-29T10:53:14.689Z,15.98
2018-09-29T10:54:14.691Z,16.05
2018-09-29T10:55:14.696Z,15.80
2018-09-29T10:56:14.700Z,15.95
2018-09-29T10:57:14.703Z,15.58
2018-09-29T10:58:14.709Z,15.55
2018-09-29T10:59:14.767Z,15.55
2018-09-29T11:00:14.713Z,15.55
2018-09-29T11:01:14.716Z,15.51
2018-09-29T11:02:14.718Z,15.42
2018-09-29T11:03:14.721Z,15.28
2018-09-29T11:04:14.723Z,15.36
2018-09-29T11:05:14.728Z,15.24
2018-09-29T11:06:14.728Z,15.19
2018-09-29T11:07:14.731Z,15.15
2018-09-29T11:08:14.732Z,15.22
2018-09-29T11:09:14.737Z,15.21
2018-09-29T11:10:14.737Z,15.42
2018-09-29T11:11:14.738Z,15.39
2018-09-29T11:12:14.739Z,15.42
2018-09-29T11:13:14.744Z,15.40
2018-09-29T11:14:14.795Z,15.44
2018-09-29T11:15:14.747Z,15.55
2018-09-29T11:16:14.747Z,15.35
2018-09-29T11:17:14.749Z,15.29
2018-09-29T11:18:14.749Z,15.25
2018-09-29T11:19:14.752Z,15.17
2018-09-29T11:20:14.753Z,15.18
2018-09-29T11:21:14.755Z,15.14
2018-09-29T11:22:14.757Z,15.29
2018-09-29T11:23:14.757Z,15.31
2018-09-29T11:24:14.758Z,15.39
2018-09-29T11:25:14.764Z,15.51
2018-09-29T11:26:14.759Z,15.58
2018-09-29T11:27:14.760Z,15.55
2018-09-29T11:28:14.784Z,15.72
2018-09-29T11:29:14.762Z,15.70
2018-09-29T11:30:14.764Z,15.68
2018-09-29T11:31:14.764Z,15.59
2018-09-29T11:32:14.764Z,15.29
2018-09-29T11:33:14.764Z,15.21
2018-09-29T11:34:14.765Z,15.14
2018-09-29T11:35:14.771Z,15.17
2018-09-29T11:36:14.767Z,15.17
2018-09-29T11:37:14.768Z,15.33
2018-09-29T11:38:14.770Z,15.39
2018-09-29T11:39:14.813Z,15.55
2018-09-29T11:40:14.768Z,15.47
2018-09-29T11:41:14.769Z,15.51
2018-09-29T11:42:14.769Z,15.49
2018-09-29T11:43:14.768Z,15.62
2018-09-29T11:44:14.769Z,15.51
2018-09-29T11:45:14.769Z,15.62
2018-09-29T11:46:14.771Z,15.57
2018-09-29T11:47:14.770Z,15.54
2018-09-29T11:48:14.769Z,15.62
2018-09-29T11:49:14.771Z,15.65
2018-09-29T11:50:14.771Z,15.67
2018-09-29T11:51:14.771Z,15.67
2018-09-29T11:52:14.772Z,15.57
2018-09-29T11:53:14.769Z,15.22
2018-09-29T11:54:14.769Z,15.19
2018-09-29T11:55:14.770Z,15.29
2018-09-29T11:56:14.833Z,15.27
2018-09-29T11:57:14.770Z,15.27
2018-09-29T11:58:14.769Z,15.18
2018-09-29T11:59:14.770Z,15.22
2018-09-29T12:00:14.770Z,15.47
2018-09-29T12:01:14.772Z,15.58
2018-09-29T12:02:14.833Z,15.80
2018-09-29T12:03:14.769Z,15.86
2018-09-29T12:04:14.771Z,15.77
2018-09-29T12:05:14.772Z,15.72
2018-09-29T12:06:14.771Z,15.29
2018-09-29T12:07:14.864Z,15.17
2018-09-29T12:08:14.769Z,15.29
2018-09-29T12:09:14.770Z,15.40
2018-09-29T12:10:14.770Z,15.59
2018-09-29T12:11:14.768Z,15.54
2018-09-29T12:12:14.769Z,15.59
2018-09-29T12:13:14.770Z,15.65
2018-09-29T12:14:14.766Z,15.72
2018-09-29T12:15:14.767Z,15.88
2018-09-29T12:16:14.766Z,15.82
2018-09-29T12:17:14.766Z,15.90
2018-09-29T12:18:14.765Z,15.70
2018-09-29T12:19:14.765Z,15.55
2018-09-29T12:20:14.766Z,15.55
2018-09-29T12:21:14.823Z,15.65
2018-09-29T12:22:14.770Z,15.61
2018-09-29T12:23:14.763Z,15.58
2018-09-29T12:24:14.763Z,15.61
2018-09-29T12:25:14.765Z,15.67
2018-09-29T12:26:14.762Z,15.68
2018-09-29T12:27:14.760Z,15.61
2018-09-29T12:28:14.763Z,15.59
2018-09-29T12:29:14.762Z,15.57
2018-09-29T12:30:14.770Z,15.70
2018-09-29T12:31:14.768Z,15.65
2018-09-29T12:32:14.758Z,15.83
2018-09-29T12:33:14.760Z,15.90
2018-09-29T12:34:14.759Z,15.98
2018-09-29T12:35:14.757Z,15.76
2018-09-29T12:36:14.758Z,15.73
2018-09-29T12:37:14.921Z,15.36
2018-09-29T12:38:14.755Z,15.40
2018-09-29T12:39:14.754Z,15.42
2018-09-29T12:40:14.755Z,15.51
2018-09-29T12:41:14.754Z,15.43
2018-09-29T12:42:14.753Z,15.55
2018-09-29T12:43:14.752Z,15.40
2018-09-29T12:44:14.785Z,15.36
2018-09-29T12:45:14.752Z,15.57
2018-09-29T12:46:14.749Z,15.57
2018-09-29T12:47:14.750Z,15.59
2018-09-29T12:48:14.749Z,15.64
2018-09-29T12:49:14.748Z,15.73
2018-09-29T12:50:14.769Z,15.79
2018-09-29T12:51:14.746Z,15.67
2018-09-29T12:52:14.745Z,15.77
2018-09-29T12:53:14.745Z,15.72
2018-09-29T12:54:14.744Z,15.67
2018-09-29T12:55:14.748Z,15.67
2018-09-29T12:56:14.744Z,15.76
2018-09-29T12:57:14.743Z,15.82
2018-09-29T12:58:14.741Z,15.72
2018-09-29T12:59:14.742Z,15.90
2018-09-29T13:00:14.742Z,15.80
2018-09-29T13:01:14.740Z,15.75
2018-09-29T13:02:14.739Z,15.90
2018-09-29T13:03:14.740Z,15.94
2018-09-29T13:04:14.737Z,15.97
2018-09-29T13:05:14.752Z,15.84
2018-09-29T13:06:14.735Z,15.86
2018-09-29T13:07:14.734Z,15.90
2018-09-29T13:08:14.734Z,15.84